Time;durP1;ratioP1;P1;durP2;ratioP2;P2;SDS_P1;SDS_P2;PMS_P1;PMS_P2;Temp;Humidity;BMP_temperature;BMP_pressure;BME280_temperature;BME280_humidity;BME280_pressure;Samples;Min_cycle;Max_cycle;Signal;HPM_P1;HPM_P2
2021/12/18 00:00:43;;;;;;;27.77;15.30;;;3.80;99.90;;;;;;4952417;28;20024;-80
2021/12/18 00:03:09;;;;;;;29.25;15.63;;;3.80;99.90;;;;;;4951700;28;20038;-80
2021/12/18 00:05:34;;;;;;;29.50;16.25;;;3.70;99.90;;;;;;4951594;28;20034;-81
2021/12/18 00:08:00;;;;;;;26.65;15.02;;;3.70;99.90;;;;;;4947260;28;20578;-80
2021/12/18 00:10:26;;;;;;;28.45;15.15;;;3.60;99.90;;;;;;4956617;28;20462;-79
2021/12/18 00:12:52;;;;;;;29.42;15.35;;;3.50;99.90;;;;;;4958137;28;20038;-80
2021/12/18 00:15:23;;;;;;;26.08;14.73;;;3.50;99.90;;;;;;4952486;28;20042;-80
2021/12/18 00:17:49;;;;;;;31.60;15.80;;;3.40;99.90;;;;;;4952096;28;20524;-80
2021/12/18 00:20:16;;;;;;;30.08;15.80;;;3.40;99.90;;;;;;4952133;28;20032;-81
2021/12/18 00:22:45;;;;;;;30.00;16.13;;;3.30;99.90;;;;;;4956626;28;20027;-80
2021/12/18 00:25:12;;;;;;;30.05;15.63;;;3.30;99.90;;;;;;4958541;28;20027;-80
2021/12/18 00:27:38;;;;;;;30.45;15.55;;;3.30;99.90;;;;;;4953544;28;20039;-80
2021/12/18 00:30:06;;;;;;;30.58;16.58;;;3.30;99.90;;;;;;4969023;28;20116;-81
2021/12/18 00:32:32;;;;;;;30.00;16.00;;;3.30;99.90;;;;;;4957835;28;20043;-81
2021/12/18 00:34:58;;;;;;;32.83;17.20;;;3.30;99.90;;;;;;4956567;28;20556;-81
2021/12/18 00:37:23;;;;;;;31.65;15.80;;;3.30;99.90;;;;;;4964940;28;20186;-81
2021/12/18 00:39:58;;;;;;;31.10;16.00;;;3.20;99.90;;;;;;4958781;28;20027;-80
2021/12/18 00:42:38;;;;;;;28.38;15.43;;;3.30;99.90;;;;;;4956732;28;20020;-80
2021/12/18 00:45:10;;;;;;;27.70;15.50;;;3.20;99.90;;;;;;4955700;28;20030;-80
2021/12/18 00:47:36;;;;;;;28.65;15.07;;;3.20;99.90;;;;;;4953133;28;20105;-80
2021/12/18 00:50:04;;;;;;;28.23;15.18;;;3.20;99.90;;;;;;4958381;28;20035;-79
2021/12/18 00:52:30;;;;;;;29.67;15.73;;;3.20;99.90;;;;;;4959692;28;20106;-79
2021/12/18 00:54:56;;;;;;;27.33;14.90;;;3.20;99.90;;;;;;4956473;28;20072;-81
2021/12/18 00:57:22;;;;;;;28.48;14.85;;;3.20;99.90;;;;;;4954378;28;20035;-80
2021/12/18 00:59:50;;;;;;;30.20;15.20;;;3.10;99.90;;;;;;4955279;28;20306;-80
2021/12/18 01:02:15;;;;;;;28.35;15.40;;;3.20;99.90;;;;;;4954775;28;20038;-80
2021/12/18 01:04:41;;;;;;;29.77;15.30;;;3.10;99.90;;;;;;4971438;28;20027;-81
2021/12/18 01:07:07;;;;;;;28.65;15.15;;;3.10;99.90;;;;;;4951405;28;20556;-80
2021/12/18 01:10:03;;;;;;;29.90;15.80;;;3.10;99.90;;;;;;4964148;28;20110;-81
2021/12/18 01:12:19;;;;;;;29.67;15.90;;;3.10;99.90;;;;;;4954661;28;20377;-80
2021/12/18 01:15:05;;;;;;;27.63;15.55;;;3.10;99.90;;;;;;4953377;28;20035;-79
2021/12/18 01:22:49;;;;;;;27.75;14.82;;;3.10;99.90;;;;;;4955314;29;20042;-80
2021/12/18 01:25:19;;;;;;;27.77;14.07;;;3.10;99.90;;;;;;4969122;28;20098;-80
2021/12/18 01:27:45;;;;;;;33.78;16.25;;;3.10;99.90;;;;;;4950326;28;20020;-81
2021/12/18 01:30:13;;;;;;;26.95;14.50;;;3.10;99.90;;;;;;4957766;28;20027;-79
2021/12/18 01:32:40;;;;;;;30.55;15.35;;;3.10;99.90;;;;;;4964272;28;20082;-79
2021/12/18 01:35:06;;;;;;;29.05;14.52;;;3.10;99.90;;;;;;4945895;28;20023;-79
2021/12/18 01:37:32;;;;;;;26.65;14.18;;;3.10;99.90;;;;;;4949272;28;20086;-79
2021/12/18 01:39:58;;;;;;;29.25;15.48;;;3.10;99.90;;;;;;4948337;28;20023;-78
2021/12/18 01:52:55;;;;;;;26.65;13.35;;;3.10;99.90;;;;;;4948186;28;20111;-79
2021/12/18 01:55:30;;;;;;;28.23;14.48;;;3.10;99.90;;;;;;4949990;28;20111;-79
2021/12/18 01:57:56;;;;;;;25.65;13.63;;;3.10;99.90;;;;;;4946138;28;20046;-79
2021/12/18 02:00:34;;;;;;;30.38;13.93;;;3.10;99.90;;;;;;4954556;23;20476;-78
2021/12/18 02:03:00;;;;;;;27.83;13.55;;;3.00;99.90;;;;;;4946967;28;20161;-78
2021/12/18 02:05:26;;;;;;;28.83;13.98;;;2.90;99.90;;;;;;4944560;28;20118;-78
2021/12/18 02:07:52;;;;;;;28.90;14.05;;;2.90;99.90;;;;;;4949440;28;20083;-77
2021/12/18 02:10:24;;;;;;;25.98;13.18;;;2.90;99.90;;;;;;4948634;28;20514;-77
2021/12/18 02:12:57;;;;;;;27.92;13.45;;;2.80;99.90;;;;;;4947587;28;20434;-77
2021/12/18 02:20:58;;;;;;;28.02;13.43;;;2.80;99.90;;;;;;4945561;28;20037;-78
2021/12/18 02:23:24;;;;;;;25.00;12.48;;;2.80;99.90;;;;;;4942897;28;20096;-78
2021/12/18 02:25:51;;;;;;;24.90;12.35;;;2.80;99.90;;;;;;4946235;28;20035;-78
2021/12/18 02:28:23;;;;;;;27.17;12.68;;;2.90;99.90;;;;;;4948989;28;20456;-78
2021/12/18 02:30:51;;;;;;;27.75;12.70;;;2.90;99.90;;;;;;4949916;28;20091;-78
2021/12/18 02:33:17;;;;;;;25.15;12.38;;;2.80;99.90;;;;;;4948798;28;20035;-77
2021/12/18 02:35:48;;;;;;;23.90;11.52;;;2.80;99.90;;;;;;4951418;28;20401;-78
2021/12/18 02:38:19;;;;;;;26.42;12.35;;;2.80;99.90;;;;;;4961796;28;20031;-79
2021/12/18 02:40:55;;;;;;;23.60;11.32;;;2.70;99.90;;;;;;4947708;28;20023;-79
2021/12/18 02:43:33;;;;;;;26.08;12.63;;;2.70;99.90;;;;;;4947579;28;20033;-79
2021/12/18 02:46:00;;;;;;;24.70;12.88;;;2.70;99.90;;;;;;4944236;28;20027;-79
2021/12/18 02:48:28;;;;;;;27.95;12.57;;;2.70;99.90;;;;;;4944437;28;20043;-79
2021/12/18 02:50:56;;;;;;;26.48;12.65;;;2.70;99.90;;;;;;4951244;28;20035;-79
2021/12/18 02:53:21;;;;;;;25.50;12.48;;;2.70;99.90;;;;;;4949945;28;20080;-78
2021/12/18 02:55:54;;;;;;;27.63;12.93;;;2.80;99.90;;;;;;4943894;28;20051;-79
2021/12/18 02:58:20;;;;;;;28.65;13.60;;;2.70;99.90;;;;;;4943985;28;20023;-79
2021/12/18 03:00:45;;;;;;;27.35;14.27;;;2.80;99.90;;;;;;4950621;28;20031;-78
2021/12/18 03:03:14;;;;;;;31.17;14.85;;;2.80;99.90;;;;;;4948253;28;20019;-79
2021/12/18 03:05:49;;;;;;;28.83;12.93;;;2.70;99.90;;;;;;4946330;28;20062;-79
2021/12/18 03:08:22;;;;;;;24.95;12.07;;;2.70;99.90;;;;;;4945064;28;20036;-79
2021/12/18 03:20:33;;;;;;;24.48;12.00;;;2.50;99.90;;;;;;4945270;28;20045;-79
2021/12/18 03:25:24;;;;;;;26.17;12.00;;;2.40;99.90;;;;;;4948054;28;19922;-79
2021/12/18 03:27:29;;;;;;;29.15;12.23;;;2.40;99.90;;;;;;4951629;28;20032;-79
2021/12/18 03:29:55;;;;;;;29.60;12.70;;;2.40;99.90;;;;;;4944484;28;20041;-78
2021/12/18 03:32:22;;;;;;;26.05;11.93;;;2.30;99.90;;;;;;4949087;28;20023;-79
2021/12/18 03:34:48;;;;;;;25.90;12.25;;;2.30;99.90;;;;;;4947896;28;20027;-79
2021/12/18 03:37:14;;;;;;;25.98;11.45;;;2.30;99.90;;;;;;4946834;28;20034;-79
2021/12/18 03:39:40;;;;;;;28.42;13.45;;;2.30;99.90;;;;;;4947194;28;20031;-78
2021/12/18 03:42:06;;;;;;;29.35;12.40;;;2.20;99.90;;;;;;4960005;28;20023;-78
2021/12/18 03:44:33;;;;;;;28.50;12.32;;;2.20;99.90;;;;;;4943662;28;20034;-79
2021/12/18 03:46:58;;;;;;;26.10;12.55;;;2.10;99.90;;;;;;4943738;28;20411;-79
2021/12/18 03:49:24;;;;;;;29.13;12.90;;;2.20;99.90;;;;;;4941221;28;20031;-79
2021/12/18 03:51:50;;;;;;;28.38;13.45;;;2.10;99.90;;;;;;4945447;28;20550;-79
2021/12/18 03:54:16;;;;;;;27.95;13.25;;;2.20;99.90;;;;;;4949034;28;20034;-79
2021/12/18 03:56:42;;;;;;;28.65;13.57;;;2.10;99.90;;;;;;4945288;28;20027;-79
2021/12/18 03:59:08;;;;;;;28.58;13.10;;;2.10;99.90;;;;;;4948898;28;20145;-79
2021/12/18 04:01:33;;;;;;;26.25;13.23;;;2.20;99.90;;;;;;4945267;28;20042;-79
2021/12/18 04:03:59;;;;;;;30.08;14.27;;;2.20;99.90;;;;;;4946875;28;20019;-79
2021/12/18 04:06:25;;;;;;;31.38;16.27;;;2.20;99.90;;;;;;4947462;28;20024;-79
2021/12/18 04:08:51;;;;;;;33.88;16.00;;;2.10;99.90;;;;;;4948796;28;20078;-78
2021/12/18 04:11:16;;;;;;;32.00;13.73;;;2.10;99.90;;;;;;4945689;28;20035;-78
2021/12/18 04:13:45;;;;;;;28.88;14.30;;;2.10;99.90;;;;;;4948236;28;20031;-79
2021/12/18 04:16:12;;;;;;;29.10;13.88;;;2.00;99.90;;;;;;4944194;28;20079;-79
2021/12/18 04:18:37;;;;;;;33.80;15.40;;;2.00;99.90;;;;;;4946021;28;20124;-79
2021/12/18 04:21:04;;;;;;;30.40;14.25;;;1.90;99.90;;;;;;4948045;28;20027;-79
2021/12/18 04:23:30;;;;;;;36.95;16.05;;;1.90;99.90;;;;;;4959935;28;20366;-79
2021/12/18 04:25:56;;;;;;;34.78;15.82;;;1.90;99.90;;;;;;4944508;28;20031;-78
2021/12/18 04:28:23;;;;;;;37.25;16.05;;;1.90;99.90;;;;;;4946326;28;20144;-77
2021/12/18 04:30:49;;;;;;;31.77;15.80;;;1.90;99.90;;;;;;4947659;28;20043;-78
2021/12/18 04:33:14;;;;;;;36.28;15.07;;;1.90;99.90;;;;;;4945922;28;20035;-78
2021/12/18 04:35:40;;;;;;;35.13;14.43;;;1.90;99.90;;;;;;4944302;28;20479;-78
2021/12/18 04:38:06;;;;;;;36.17;15.20;;;1.90;99.90;;;;;;4962526;28;20027;-78
2021/12/18 04:40:32;;;;;;;33.38;14.98;;;1.90;99.90;;;;;;4943159;28;20035;-78
2021/12/18 04:42:58;;;;;;;34.47;15.63;;;1.80;99.90;;;;;;4949715;28;20102;-78
2021/12/18 04:45:24;;;;;;;34.58;15.50;;;1.90;99.90;;;;;;4943640;28;20027;-78
2021/12/18 04:47:50;;;;;;;37.20;15.07;;;1.90;99.90;;;;;;4958491;28;20095;-78
2021/12/18 04:50:17;;;;;;;33.75;14.35;;;2.00;99.90;;;;;;4947708;28;20041;-79
2021/12/18 04:52:42;;;;;;;35.88;15.15;;;2.00;99.90;;;;;;4960672;28;20122;-77
2021/12/18 04:55:08;;;;;;;33.75;14.98;;;2.00;99.90;;;;;;4945602;28;20107;-78
2021/12/18 04:57:34;;;;;;;35.90;15.63;;;2.10;99.90;;;;;;4950664;28;20039;-78
2021/12/18 05:00:00;;;;;;;35.42;15.32;;;2.10;99.90;;;;;;4951323;28;20034;-78
2021/12/18 05:02:36;;;;;;;35.00;15.10;;;2.00;99.90;;;;;;4969158;28;21488;-78
2021/12/18 05:05:04;;;;;;;30.67;13.63;;;2.00;99.90;;;;;;4951360;28;20059;-78
2021/12/18 05:07:30;;;;;;;32.58;14.75;;;2.00;99.90;;;;;;4950305;28;20070;-78
2021/12/18 05:09:55;;;;;;;31.17;14.98;;;1.90;99.90;;;;;;4944059;28;20027;-78
2021/12/18 05:12:21;;;;;;;32.30;14.48;;;1.90;99.90;;;;;;4962535;28;20135;-78
2021/12/18 05:14:47;;;;;;;32.25;13.55;;;1.90;99.90;;;;;;4946090;28;20036;-78
2021/12/18 05:17:15;;;;;;;31.65;14.35;;;1.90;99.90;;;;;;4952921;28;20035;-78
2021/12/18 05:19:41;;;;;;;32.03;14.07;;;1.90;99.90;;;;;;4947632;28;20031;-79
2021/12/18 05:22:06;;;;;;;34.22;13.93;;;2.00;99.90;;;;;;4949491;28;20031;-78
2021/12/18 05:24:32;;;;;;;29.77;13.57;;;2.00;99.90;;;;;;4951210;28;20087;-78
2021/12/18 05:26:58;;;;;;;28.33;14.05;;;2.00;99.90;;;;;;4949448;28;20110;-78
2021/12/18 05:29:24;;;;;;;32.13;12.98;;;2.00;99.90;;;;;;4950727;28;20035;-78
2021/12/18 05:31:50;;;;;;;27.00;12.02;;;2.00;99.90;;;;;;4947781;28;20082;-78
2021/12/18 05:34:24;;;;;;;31.17;12.98;;;2.00;99.90;;;;;;4947688;28;20039;-78
2021/12/18 05:39:26;;;;;;;27.42;12.10;;;2.10;99.90;;;;;;4951467;28;20039;-78
2021/12/18 05:41:53;;;;;;;22.50;10.32;;;2.00;99.90;;;;;;4949090;28;20454;-78
2021/12/18 05:44:22;;;;;;;24.83;11.27;;;2.00;99.90;;;;;;4949248;28;20126;-78
2021/12/18 05:46:48;;;;;;;28.20;13.32;;;2.00;99.90;;;;;;4947026;28;21446;-78
2021/12/18 05:49:14;;;;;;;26.10;11.85;;;2.00;99.90;;;;;;4948554;28;20057;-78
2021/12/18 05:51:42;;;;;;;27.33;11.85;;;2.00;99.90;;;;;;4949232;28;20027;-78
2021/12/18 05:54:09;;;;;;;26.15;11.82;;;2.00;99.90;;;;;;4950857;28;20035;-78
2021/12/18 05:56:34;;;;;;;29.65;12.35;;;1.90;99.90;;;;;;4957234;28;20507;-78
2021/12/18 05:59:00;;;;;;;30.83;13.38;;;1.90;99.90;;;;;;4948505;28;20091;-78
2021/12/18 06:01:26;;;;;;;27.40;12.10;;;1.90;99.90;;;;;;4944653;28;20031;-78
2021/12/18 06:03:53;;;;;;;28.35;12.63;;;1.90;99.90;;;;;;4944517;28;20587;-78
2021/12/18 06:06:20;;;;;;;30.10;13.57;;;1.90;99.90;;;;;;4945601;28;20119;-78
2021/12/18 06:08:46;;;;;;;29.67;11.95;;;2.00;99.90;;;;;;4959429;28;20166;-77
2021/12/18 06:11:14;;;;;;;25.85;12.77;;;2.00;99.90;;;;;;4947636;28;20107;-80
2021/12/18 06:13:41;;;;;;;25.42;12.32;;;2.00;99.90;;;;;;4947737;28;20074;-77
2021/12/18 06:16:08;;;;;;;30.80;13.45;;;1.90;99.90;;;;;;4945676;28;20035;-79
2021/12/18 06:18:42;;;;;;;28.35;12.40;;;1.90;99.90;;;;;;4946134;28;20543;-78
2021/12/18 06:21:09;;;;;;;;;;;2.00;99.90;;;;;;4945590;28;20031;-78
2021/12/18 06:23:35;;;;;;;26.10;11.45;;;2.00;99.90;;;;;;4947081;28;20327;-77
2021/12/18 06:26:01;;;;;;;28.05;11.98;;;1.90;99.90;;;;;;4945985;28;20058;-77
2021/12/18 06:28:26;;;;;;;29.00;13.75;;;1.90;99.90;;;;;;4946534;28;20548;-76
2021/12/18 06:30:53;;;;;;;24.70;11.30;;;2.00;99.90;;;;;;4948233;28;20481;-76
2021/12/18 06:33:19;;;;;;;27.55;12.02;;;2.00;99.90;;;;;;4946665;28;20504;-76
2021/12/18 06:35:45;;;;;;;27.58;11.10;;;2.00;99.90;;;;;;4946476;28;20032;-77
2021/12/18 06:38:11;;;;;;;26.60;11.63;;;1.90;99.90;;;;;;4948604;28;20119;-78
2021/12/18 06:40:37;;;;;;;30.65;12.60;;;1.90;99.90;;;;;;4958274;28;20031;-78
2021/12/18 06:43:03;;;;;;;27.98;12.80;;;1.80;99.90;;;;;;4949842;28;20276;-77
2021/12/18 06:45:28;;;;;;;28.50;11.43;;;1.70;99.90;;;;;;4948357;28;20484;-77
2021/12/18 06:47:55;;;;;;;25.27;10.43;;;1.70;99.90;;;;;;4945868;28;20054;-78
2021/12/18 06:50:22;;;;;;;28.67;12.18;;;1.70;99.90;;;;;;4946622;28;20106;-77
2021/12/18 06:52:48;;;;;;;22.67;10.48;;;1.70;99.90;;;;;;4945746;28;20099;-78
2021/12/18 06:55:13;;;;;;;26.42;11.77;;;1.60;99.90;;;;;;4948562;28;20425;-76
2021/12/18 06:57:39;;;;;;;26.38;11.52;;;1.50;99.90;;;;;;4945165;28;20035;-76
2021/12/18 07:00:08;;;;;;;31.02;13.57;;;1.50;99.90;;;;;;4941449;28;20035;-77
2021/12/18 07:02:34;;;;;;;24.70;10.98;;;1.60;99.90;;;;;;4946669;28;20043;-77
2021/12/18 07:05:00;;;;;;;27.00;11.50;;;1.60;99.90;;;;;;4940964;28;20381;-77
2021/12/18 07:07:26;;;;;;;27.08;11.88;;;1.60;99.90;;;;;;4944719;28;20093;-77
2021/12/18 07:09:51;;;;;;;24.65;10.18;;;1.60;99.90;;;;;;4947498;28;20038;-77
2021/12/18 07:12:17;;;;;;;24.80;11.48;;;1.60;99.90;;;;;;4943166;28;20167;-77
2021/12/18 07:14:43;;;;;;;26.60;12.57;;;1.70;99.90;;;;;;4937666;28;20027;-78
2021/12/18 07:17:08;;;;;;;30.55;13.38;;;1.70;99.90;;;;;;4943596;28;20058;-79
2021/12/18 07:19:34;;;;;;;27.80;11.45;;;1.70;99.90;;;;;;4961450;28;20143;-79
2021/12/18 07:22:00;;;;;;;25.67;11.82;;;1.70;99.90;;;;;;4945244;28;20097;-77
2021/12/18 07:24:26;;;;;;;24.85;11.25;;;1.80;99.90;;;;;;4945472;28;20162;-77
2021/12/18 07:26:52;;;;;;;23.90;10.93;;;1.80;99.90;;;;;;4945983;28;20492;-77
2021/12/18 07:29:19;;;;;;;26.48;12.13;;;1.80;99.90;;;;;;4949800;28;20093;-78
2021/12/18 07:31:44;;;;;;;28.33;11.15;;;1.80;99.90;;;;;;4956121;28;20027;-77
2021/12/18 07:34:10;;;;;;;24.00;11.05;;;1.80;99.90;;;;;;4950905;28;20042;-77
2021/12/18 07:36:36;;;;;;;27.98;11.18;;;1.90;99.90;;;;;;4946565;28;20031;-78
2021/12/18 07:39:02;;;;;;;26.05;11.27;;;1.90;99.90;;;;;;4962350;28;20035;-78
2021/12/18 07:41:28;;;;;;;25.35;11.43;;;1.90;99.90;;;;;;4944928;28;20102;-78
2021/12/18 07:43:54;;;;;;;23.58;11.65;;;1.90;99.90;;;;;;4947543;28;20169;-77
2021/12/18 07:46:19;;;;;;;23.65;10.27;;;2.00;99.90;;;;;;4945674;28;20138;-77
2021/12/18 07:48:45;;;;;;;21.45;9.88;;;1.90;99.90;;;;;;4950213;28;20038;-77
2021/12/18 07:51:11;;;;;;;23.33;10.55;;;1.90;99.90;;;;;;4960721;28;20031;-78
2021/12/18 07:53:37;;;;;;;24.77;11.40;;;1.90;99.90;;;;;;4947021;28;20050;-79
2021/12/18 07:56:04;;;;;;;18.25;9.70;;;2.00;99.90;;;;;;4964259;28;20480;-79
2021/12/18 07:58:31;;;;;;;23.73;10.57;;;2.00;99.90;;;;;;4955843;28;20460;-78
2021/12/18 08:00:57;;;;;;;20.85;10.40;;;2.00;99.90;;;;;;4965204;23;20460;-69
2021/12/18 08:03:23;;;;;;;23.50;10.70;;;2.10;99.90;;;;;;4975166;28;20559;-70
2021/12/18 08:05:49;;;;;;;22.92;10.38;;;2.00;99.90;;;;;;4959846;28;20030;-70
2021/12/18 08:08:15;;;;;;;21.55;9.65;;;2.10;99.90;;;;;;4951766;28;20024;-70
2021/12/18 08:10:40;;;;;;;24.40;10.82;;;2.00;99.90;;;;;;4948557;28;20469;-69
2021/12/18 08:13:06;;;;;;;21.65;9.63;;;2.10;99.90;;;;;;4966881;23;20116;-69
2021/12/18 08:15:32;;;;;;;26.60;11.82;;;2.10;99.90;;;;;;4968014;28;20023;-68
2021/12/18 08:17:58;;;;;;;22.95;11.13;;;2.00;99.90;;;;;;4963053;28;20031;-67
2021/12/18 08:20:26;;;;;;;20.63;10.07;;;2.10;99.90;;;;;;4965594;28;20119;-67
2021/12/18 08:22:52;;;;;;;22.33;10.65;;;2.10;99.90;;;;;;4968189;28;20038;-68
2021/12/18 08:25:18;;;;;;;22.48;9.68;;;2.10;99.90;;;;;;4965534;28;20395;-68
2021/12/18 08:27:43;;;;;;;22.75;10.10;;;2.10;99.90;;;;;;4978534;28;20085;-68
2021/12/18 08:30:10;;;;;;;27.42;10.15;;;2.20;99.90;;;;;;4968741;28;20038;-69
2021/12/18 08:32:35;;;;;;;23.10;10.65;;;2.20;99.90;;;;;;4974654;28;20531;-68
2021/12/18 08:35:01;;;;;;;23.23;9.77;;;2.20;99.90;;;;;;4965341;28;20121;-68
2021/12/18 08:37:27;;;;;;;21.73;10.13;;;2.20;99.90;;;;;;4956882;28;20066;-68
2021/12/18 08:39:53;;;;;;;24.13;9.63;;;2.20;99.90;;;;;;4971970;28;20089;-69
2021/12/18 08:42:18;;;;;;;22.90;9.98;;;2.20;99.90;;;;;;4974064;28;20043;-69
2021/12/18 08:44:44;;;;;;;20.92;9.68;;;2.30;99.90;;;;;;4969835;28;20062;-69
2021/12/18 08:47:10;;;;;;;18.95;9.48;;;2.30;99.90;;;;;;4971338;28;20015;-69
2021/12/18 08:49:37;;;;;;;22.85;11.63;;;2.30;99.90;;;;;;4975924;28;20133;-69
2021/12/18 08:52:03;;;;;;;22.75;10.32;;;2.30;99.90;;;;;;4972032;28;20097;-69
2021/12/18 08:54:29;;;;;;;21.23;10.93;;;2.30;99.90;;;;;;4969620;28;20027;-68
2021/12/18 08:56:55;;;;;;;23.00;10.52;;;2.30;99.90;;;;;;4966117;28;20050;-68
2021/12/18 08:59:21;;;;;;;25.05;11.85;;;2.40;99.90;;;;;;4968906;28;20023;-69
2021/12/18 09:01:46;;;;;;;25.88;10.80;;;2.50;99.90;;;;;;4971858;28;20107;-69
2021/12/18 09:04:12;;;;;;;25.52;11.73;;;2.50;99.90;;;;;;4970515;28;20034;-68
2021/12/18 09:06:38;;;;;;;23.20;10.82;;;2.50;99.90;;;;;;4969062;28;20528;-68
2021/12/18 09:09:04;;;;;;;26.60;11.45;;;2.50;99.90;;;;;;4965608;28;20034;-68
2021/12/18 09:11:30;;;;;;;24.75;11.73;;;2.50;99.90;;;;;;4969264;28;20506;-68
2021/12/18 09:13:56;;;;;;;23.08;10.85;;;2.50;99.90;;;;;;4978596;28;20035;-68
2021/12/18 09:16:23;;;;;;;24.80;10.65;;;2.50;99.90;;;;;;4970622;28;20059;-69
2021/12/18 09:18:48;;;;;;;24.33;10.57;;;2.60;99.90;;;;;;4970197;28;20022;-68
2021/12/18 09:21:14;;;;;;;24.58;11.00;;;2.60;99.90;;;;;;4966860;28;20078;-68
2021/12/18 09:23:40;;;;;;;21.77;10.18;;;2.50;99.90;;;;;;4969534;28;20035;-68
2021/12/18 09:26:06;;;;;;;25.77;11.00;;;2.50;99.90;;;;;;4969034;28;20058;-68
2021/12/18 09:28:32;;;;;;;23.20;11.05;;;2.50;99.90;;;;;;4970457;28;20105;-69
2021/12/18 09:30:57;;;;;;;23.83;10.95;;;2.60;99.90;;;;;;4968073;28;20080;-69
2021/12/18 09:33:23;;;;;;;21.25;9.60;;;2.60;99.90;;;;;;4972443;28;20031;-68
2021/12/18 09:35:49;;;;;;;27.75;11.25;;;2.60;99.90;;;;;;4969766;28;20031;-68
2021/12/18 09:38:14;;;;;;;25.88;10.55;;;2.60;99.90;;;;;;4983119;28;20027;-68
2021/12/18 09:40:41;;;;;;;24.08;9.82;;;2.60;99.90;;;;;;4964303;28;20468;-69
2021/12/18 09:43:06;;;;;;;23.80;10.80;;;2.60;99.90;;;;;;4974232;28;20391;-69
2021/12/18 09:45:32;;;;;;;24.25;11.07;;;2.60;99.90;;;;;;4991576;28;20030;-68
2021/12/18 09:47:58;;;;;;;21.88;10.38;;;2.70;99.90;;;;;;4974172;28;20097;-67
2021/12/18 09:50:26;;;;;;;23.05;10.85;;;2.80;99.90;;;;;;4973820;28;20437;-67
2021/12/18 09:52:53;;;;;;;22.23;9.95;;;2.80;99.90;;;;;;4969958;28;20377;-67
2021/12/18 09:55:18;;;;;;;23.02;10.45;;;2.90;99.90;;;;;;4970029;28;20027;-68
2021/12/18 09:57:45;;;;;;;22.25;10.73;;;3.00;99.90;;;;;;4970181;28;20027;-68
2021/12/18 10:00:17;;;;;;;23.92;10.48;;;3.00;99.90;;;;;;4970041;28;20023;-67
2021/12/18 10:02:43;;;;;;;22.80;10.75;;;3.00;99.90;;;;;;4968265;28;20030;-68
2021/12/18 10:05:28;;;;;;;22.70;11.40;;;3.10;99.90;;;;;;4972209;28;20030;-67
2021/12/18 10:08:06;;;;;;;23.33;10.88;;;3.20;99.90;;;;;;4962795;28;20030;-68
2021/12/18 10:10:32;;;;;;;22.88;11.00;;;3.30;99.90;;;;;;4970946;28;20041;-67
2021/12/18 10:13:09;;;;;;;23.02;10.38;;;3.40;99.90;;;;;;4971966;28;20031;-66
2021/12/18 10:15:36;;;;;;;25.50;11.70;;;3.50;99.90;;;;;;4964741;28;20369;-66
2021/12/18 10:18:08;;;;;;;25.38;11.27;;;3.60;99.90;;;;;;4970332;28;20035;-67
2021/12/18 10:20:34;;;;;;;25.08;10.95;;;3.70;99.90;;;;;;4969590;28;20057;-66
2021/12/18 10:23:04;;;;;;;23.85;11.00;;;3.80;99.90;;;;;;4965411;28;20054;-66
2021/12/18 10:25:40;;;;;;;21.50;10.07;;;3.90;99.90;;;;;;4969928;28;20450;-66
2021/12/18 10:28:20;;;;;;;22.17;10.07;;;3.80;99.90;;;;;;4969705;28;20041;-66
2021/12/18 10:30:47;;;;;;;21.15;10.52;;;3.80;99.90;;;;;;4968531;28;20029;-66
2021/12/18 10:33:14;;;;;;;25.17;11.75;;;3.60;99.90;;;;;;4974959;28;20286;-66
2021/12/18 10:35:43;;;;;;;23.77;10.70;;;3.60;99.90;;;;;;4967738;28;20023;-66
2021/12/18 10:38:29;;;;;;;22.65;9.90;;;3.60;99.90;;;;;;4967489;28;20031;-66
2021/12/18 10:40:55;;;;;;;21.85;10.88;;;3.60;99.90;;;;;;4967874;28;20027;-66
2021/12/18 10:43:21;;;;;;;21.52;9.93;;;3.60;99.90;;;;;;4971100;28;20022;-66
2021/12/18 10:45:47;;;;;;;22.60;11.50;;;3.60;99.90;;;;;;4972029;28;20031;-66
2021/12/18 10:48:17;;;;;;;21.83;10.65;;;3.70;99.90;;;;;;4986657;28;20118;-66
2021/12/18 10:50:50;;;;;;;24.00;11.68;;;3.80;99.90;;;;;;4966204;28;20022;-66
2021/12/18 10:53:22;;;;;;;25.13;11.65;;;3.80;99.90;;;;;;4970197;28;20578;-66
2021/12/18 10:55:52;;;;;;;22.25;10.25;;;3.80;99.90;;;;;;4972283;28;20642;-66
2021/12/18 10:58:38;;;;;;;17.63;9.05;;;3.90;99.90;;;;;;4971616;28;20030;-66
2021/12/18 11:01:05;;;;;;;18.00;9.35;;;3.80;99.90;;;;;;4967839;28;20025;-66
2021/12/18 11:03:44;;;;;;;21.83;10.75;;;3.80;99.90;;;;;;4967163;28;20074;-66
2021/12/18 11:06:11;;;;;;;19.88;9.85;;;3.70;99.90;;;;;;4973864;28;20062;-66
2021/12/18 11:09:06;;;;;;;18.70;9.68;;;3.70;99.90;;;;;;4968878;28;20031;-66
2021/12/18 11:14:20;;;;;;;29.13;9.48;;;3.70;99.90;;;;;;4966866;28;20456;-66
2021/12/18 11:16:57;;;;;;;23.27;9.02;;;3.50;99.90;;;;;;4965683;28;20022;-66
2021/12/18 11:19:28;;;;;;;18.95;9.13;;;3.70;99.90;;;;;;4963071;28;20396;-66
2021/12/18 11:21:56;;;;;;;22.50;10.10;;;3.80;99.90;;;;;;4967417;28;20042;-66
2021/12/18 11:24:36;;;;;;;21.50;9.93;;;3.70;99.90;;;;;;4966602;28;20027;-67
2021/12/18 11:27:04;;;;;;;24.02;11.02;;;3.70;99.90;;;;;;4972319;28;20042;-67
2021/12/18 11:29:41;;;;;;;21.58;9.85;;;3.70;99.90;;;;;;4971445;28;20113;-66
2021/12/18 11:32:14;;;;;;;18.48;9.07;;;3.70;99.90;;;;;;4968854;28;20074;-66
2021/12/18 11:34:40;;;;;;;19.40;8.57;;;3.60;99.90;;;;;;4969137;28;20503;-66
2021/12/18 11:37:12;;;;;;;18.80;8.73;;;3.60;99.90;;;;;;4972568;28;20071;-66
2021/12/18 11:39:39;;;;;;;19.35;9.63;;;3.50;99.90;;;;;;4968758;28;20607;-66
2021/12/18 11:42:06;;;;;;;17.33;8.05;;;3.70;99.90;;;;;;4969368;28;20090;-65
2021/12/18 11:44:41;;;;;;;17.27;8.27;;;3.70;99.90;;;;;;4970380;28;20395;-66
2021/12/18 11:47:36;;;;;;;18.75;8.40;;;3.40;99.90;;;;;;4972803;28;20035;-66
2021/12/18 11:50:22;;;;;;;18.45;8.32;;;3.40;99.90;;;;;;4972470;28;20480;-67
2021/12/18 11:53:09;;;;;;;18.08;8.27;;;3.40;99.90;;;;;;4970731;28;20038;-67
2021/12/18 11:55:56;;;;;;;20.05;9.85;;;3.50;99.90;;;;;;4971843;28;20038;-66
2021/12/18 11:58:26;;;;;;;17.77;8.60;;;3.40;99.90;;;;;;4967354;28;20125;-66
2021/12/18 12:01:17;;;;;;;19.70;9.55;;;3.30;99.90;;;;;;4972037;28;20045;-66
2021/12/18 12:03:47;;;;;;;16.88;8.73;;;3.30;99.90;;;;;;4966697;28;20243;-66
2021/12/18 12:06:33;;;;;;;16.85;8.27;;;3.30;99.90;;;;;;4975600;28;20498;-65
2021/12/18 12:09:20;;;;;;;18.65;8.57;;;3.30;99.90;;;;;;4976540;28;20097;-68
2021/12/18 12:12:00;;;;;;;18.98;9.50;;;3.40;99.90;;;;;;4965225;28;20030;-66
2021/12/18 12:14:28;;;;;;;15.75;7.88;;;3.40;99.90;;;;;;4990219;28;20082;-65
2021/12/18 12:17:01;;;;;;;21.50;9.90;;;3.40;99.90;;;;;;4973193;28;20035;-66
2021/12/18 12:19:35;;;;;;;20.75;9.68;;;3.40;99.90;;;;;;4991849;28;20022;-66
2021/12/18 12:22:04;;;;;;;19.98;7.97;;;3.50;99.90;;;;;;4979523;28;20031;-65
2021/12/18 12:24:54;;;;;;;22.95;10.45;;;3.50;99.90;;;;;;4970351;28;20030;-66
2021/12/18 12:27:52;;;;;;;19.73;8.02;;;3.50;99.90;;;;;;4975288;28;20026;-67
2021/12/18 12:30:43;;;;;;;17.15;7.65;;;3.50;99.90;;;;;;4969467;28;20089;-69
2021/12/18 12:33:39;;;;;;;15.88;7.53;;;3.50;99.90;;;;;;4973668;28;20423;-69
2021/12/18 12:36:24;;;;;;;15.60;8.05;;;3.40;99.90;;;;;;4968024;28;20047;-69
2021/12/18 12:38:56;;;;;;;17.52;8.82;;;3.50;99.90;;;;;;4991138;28;20110;-69
2021/12/18 12:41:34;;;;;;;18.65;9.02;;;3.40;99.90;;;;;;4975126;28;20143;-69
2021/12/18 12:44:05;;;;;;;17.73;8.75;;;3.40;99.90;;;;;;4972518;28;20030;-70
2021/12/18 12:46:31;;;;;;;18.35;8.73;;;3.40;99.90;;;;;;4985261;28;20105;-70
2021/12/18 12:49:05;;;;;;;15.65;8.20;;;3.30;99.90;;;;;;4972884;28;20078;-70
2021/12/18 12:52:00;;;;;;;16.20;7.55;;;3.30;99.90;;;;;;4976451;28;20034;-69
2021/12/18 12:54:46;;;;;;;13.68;7.55;;;3.30;99.90;;;;;;4973818;28;20118;-69
2021/12/18 12:57:24;;;;;;;16.52;8.23;;;3.30;99.90;;;;;;4984324;28;20035;-69
2021/12/18 12:59:50;;;;;;;18.10;8.95;;;3.40;99.90;;;;;;4975020;28;20518;-69
2021/12/18 13:02:16;;;;;;;17.75;8.52;;;3.40;99.90;;;;;;4971705;28;20055;-69
2021/12/18 13:04:43;;;;;;;16.10;7.50;;;3.40;99.90;;;;;;4975226;28;20535;-67
2021/12/18 13:07:09;;;;;;;16.80;7.85;;;3.40;99.90;;;;;;4978884;28;20042;-67
2021/12/18 13:09:43;;;;;;;15.07;8.15;;;3.40;99.90;;;;;;4971801;28;20081;-68
2021/12/18 13:12:09;;;;;;;14.40;7.47;;;3.40;99.90;;;;;;4975433;28;20034;-68
2021/12/18 13:14:40;;;;;;;15.55;8.07;;;3.30;99.90;;;;;;4975005;28;20049;-67
2021/12/18 13:17:25;;;;;;;13.55;7.70;;;3.30;99.90;;;;;;4967822;28;20034;-69
2021/12/18 13:20:02;;;;;;;16.92;8.63;;;3.30;99.90;;;;;;4969412;28;20435;-69
2021/12/18 13:22:33;;;;;;;15.68;8.00;;;3.40;99.90;;;;;;4970963;28;20022;-67
2021/12/18 13:25:08;;;;;;;14.63;7.82;;;3.40;99.90;;;;;;4966642;28;20023;-67